createdAt,value
2018-09-19T00:00:22.735Z,5.33
2018-09-19T00:02:51.128Z,5.07
2018-09-19T00:05:19.563Z,4.87
2018-09-19T00:07:48.135Z,4.40
2018-09-19T00:10:16.591Z,4.00
2018-09-19T00:12:44.965Z,4.80
2018-09-19T00:15:14.364Z,5.17
2018-09-19T00:17:42.754Z,4.10
2018-09-19T00:20:11.167Z,4.87
2018-09-19T00:22:39.526Z,4.80
2018-09-19T00:25:07.835Z,4.60
2018-09-19T00:27:36.150Z,4.53
2018-09-19T00:30:05.547Z,4.30
2018-09-19T00:32:33.893Z,5.90
2018-09-19T00:35:02.214Z,5.53
2018-09-19T00:37:30.563Z,4.67
2018-09-19T00:39:58.898Z,4.70
2018-09-19T00:42:27.383Z,4.97
2018-09-19T00:44:55.743Z,4.70
2018-09-19T00:47:24.104Z,4.80
2018-09-19T00:49:52.483Z,4.70
2018-09-19T00:52:20.825Z,5.30
2018-09-19T00:54:49.143Z,5.53
2018-09-19T00:57:17.541Z,5.40
2018-09-19T00:59:45.924Z,4.90
2018-09-19T01:02:14.302Z,5.63
2018-09-19T01:04:42.652Z,5.10
2018-09-19T01:07:11.110Z,5.53
2018-09-19T01:09:39.425Z,5.60
2018-09-19T01:12:07.822Z,5.43
2018-09-19T01:14:36.175Z,5.20
2018-09-19T01:17:04.558Z,4.97
2018-09-19T01:19:32.956Z,5.83
2018-09-19T01:22:01.349Z,5.80
2018-09-19T01:24:29.715Z,5.50
2018-09-19T01:26:58.142Z,5.10
2018-09-19T01:29:26.507Z,6.10
2018-09-19T01:31:55.162Z,6.00
2018-09-19T01:34:23.594Z,5.13
2018-09-19T01:36:52.183Z,5.47
2018-09-19T01:39:20.601Z,5.30
2018-09-19T01:41:49.034Z,6.63
2018-09-19T01:44:17.363Z,6.07
2018-09-19T01:46:45.797Z,5.67
2018-09-19T01:49:14.217Z,6.37
2018-09-19T01:51:42.670Z,5.57
2018-09-19T01:54:11.045Z,6.63
2018-09-19T01:56:39.432Z,5.60
2018-09-19T01:59:07.826Z,6.57
2018-09-19T02:01:36.210Z,5.73
2018-09-19T02:04:04.584Z,6.00
2018-09-19T02:06:32.952Z,6.50
2018-09-19T02:09:01.366Z,6.47
2018-09-19T02:11:29.776Z,6.40
2018-09-19T02:13:58.147Z,6.07
2018-09-19T02:16:26.466Z,6.67
2018-09-19T02:18:54.854Z,6.33
2018-09-19T02:21:23.223Z,6.27
2018-09-19T02:23:51.577Z,5.83
2018-09-19T02:26:19.960Z,6.40
2018-09-19T02:28:48.351Z,6.40
2018-09-19T02:31:16.814Z,6.50
2018-09-19T02:33:45.295Z,7.60
2018-09-19T02:36:18.536Z,6.60
2018-09-19T02:38:47.326Z,5.80
2018-09-19T02:41:15.906Z,6.10
2018-09-19T02:43:44.287Z,6.20
2018-09-19T02:46:12.733Z,5.53
2018-09-19T02:48:41.234Z,6.90
2018-09-19T02:51:09.667Z,7.10
2018-09-19T02:53:38.083Z,6.70
2018-09-19T02:56:06.662Z,6.63
2018-09-19T02:58:35.143Z,7.27
2018-09-19T03:01:03.689Z,5.87
2018-09-19T03:03:32.114Z,6.90
2018-09-19T03:06:00.602Z,7.50
2018-09-19T03:08:29.172Z,5.40
2018-09-19T03:10:57.647Z,7.57
2018-09-19T03:13:26.194Z,5.77
2018-09-19T03:15:54.712Z,6.13
2018-09-19T03:18:23.311Z,6.07
2018-09-19T03:20:51.686Z,6.37
2018-09-19T03:23:20.072Z,6.03
2018-09-19T03:25:48.435Z,6.33
2018-09-19T03:28:16.884Z,7.10
2018-09-19T03:30:45.500Z,8.00
2018-09-19T03:33:13.913Z,6.20
2018-09-19T03:35:42.340Z,6.07
2018-09-19T03:38:10.744Z,7.53
2018-09-19T03:40:39.187Z,6.97
2018-09-19T03:43:07.620Z,7.40
2018-09-19T03:45:35.982Z,7.63
2018-09-19T03:48:04.378Z,6.00
2018-09-19T03:50:32.805Z,7.23
2018-09-19T03:53:01.221Z,6.57
2018-09-19T03:55:29.653Z,8.03
2018-09-19T03:57:58.029Z,7.57
2018-09-19T04:00:26.423Z,6.77
2018-09-19T04:02:54.819Z,8.20
2018-09-19T04:05:23.198Z,8.30
2018-09-19T04:07:51.602Z,7.70
2018-09-19T04:10:19.987Z,8.00
2018-09-19T04:12:48.460Z,7.10
2018-09-19T04:15:16.896Z,7.97
2018-09-19T04:17:45.385Z,7.93
2018-09-19T04:20:13.851Z,7.80
2018-09-19T04:22:42.409Z,8.73
2018-09-19T04:25:10.902Z,7.43
2018-09-19T04:27:39.349Z,7.47
2018-09-19T04:30:07.792Z,7.80
2018-09-19T04:32:36.311Z,7.50
2018-09-19T04:35:04.747Z,7.67
2018-09-19T04:37:33.295Z,7.40
2018-09-19T04:40:01.673Z,7.73
2018-09-19T04:42:30.125Z,8.43
2018-09-19T04:44:58.621Z,8.13
2018-09-19T04:47:27.089Z,7.27
2018-09-19T04:49:55.603Z,7.97
2018-09-19T04:52:24.068Z,7.90
2018-09-19T04:54:52.522Z,7.03
2018-09-19T04:57:20.992Z,8.20
2018-09-19T04:59:49.460Z,9.40
2018-09-19T05:02:17.996Z,8.40
2018-09-19T05:04:46.577Z,8.47
2018-09-19T05:07:15.119Z,7.30
2018-09-19T05:09:43.521Z,9.30
2018-09-19T05:12:11.934Z,8.10
2018-09-19T05:14:40.387Z,8.77
2018-09-19T05:17:08.905Z,7.93
2018-09-19T05:19:37.369Z,8.73
2018-09-19T05:22:05.929Z,8.90
2018-09-19T05:24:34.423Z,9.53
2018-09-19T05:27:02.868Z,8.87
2018-09-19T05:29:31.455Z,9.50
2018-09-19T05:31:59.852Z,10.33
2018-09-19T05:34:28.300Z,8.57
2018-09-19T05:36:56.761Z,10.60
2018-09-19T05:39:25.273Z,9.33
2018-09-19T05:41:53.923Z,10.00
2018-09-19T05:44:22.459Z,10.60
2018-09-19T05:46:51.045Z,8.90
2018-09-19T05:49:19.431Z,9.07
2018-09-19T05:51:47.866Z,9.00
2018-09-19T05:54:16.418Z,9.47
2018-09-19T05:56:44.917Z,8.80
2018-09-19T05:59:14.316Z,8.47
2018-09-19T06:01:42.860Z,8.90
2018-09-19T06:04:11.339Z,8.67
2018-09-19T06:06:39.813Z,8.73
2018-09-19T06:09:09.730Z,7.60
2018-09-19T06:11:38.210Z,7.90
2018-09-19T06:14:06.705Z,7.90
2018-09-19T06:16:35.071Z,8.13
2018-09-19T06:19:03.566Z,7.40
2018-09-19T06:21:32.045Z,7.57
2018-09-19T06:24:00.603Z,8.97
2018-09-19T06:26:29.145Z,8.47
2018-09-19T06:28:57.651Z,9.30
2018-09-19T06:31:26.155Z,9.27
2018-09-19T06:33:54.736Z,9.50
2018-09-19T06:36:23.225Z,9.20
2018-09-19T06:38:51.761Z,8.00
2018-09-19T06:41:20.311Z,7.80
2018-09-19T06:43:48.814Z,7.23
2018-09-19T06:46:17.311Z,7.73
2018-09-19T06:48:45.831Z,7.10
2018-09-19T06:51:14.266Z,8.70
2018-09-19T06:53:42.757Z,8.70
2018-09-19T06:56:11.281Z,9.13
2018-09-19T06:58:39.779Z,8.20
2018-09-19T07:01:08.282Z,7.57
2018-09-19T07:03:36.803Z,9.00
2018-09-19T07:06:05.279Z,7.33
2018-09-19T07:08:33.798Z,6.90
2018-09-19T07:11:02.347Z,7.20
2018-09-19T07:13:30.937Z,7.17
2018-09-19T07:15:59.534Z,7.43
2018-09-19T07:18:28.102Z,7.73
2018-09-19T07:20:56.688Z,6.57
2018-09-19T07:23:25.196Z,6.33
2018-09-19T07:25:53.769Z,6.40
2018-09-19T07:28:22.375Z,6.80
2018-09-19T07:30:50.920Z,5.63
2018-09-19T07:33:19.471Z,6.30
2018-09-19T07:35:48.101Z,5.50
2018-09-19T07:38:16.646Z,6.13
2018-09-19T07:40:45.159Z,5.93
2018-09-19T07:43:13.738Z,6.47
2018-09-19T07:45:42.217Z,6.37
2018-09-19T07:48:10.738Z,5.77
2018-09-19T07:50:39.198Z,4.90
2018-09-19T07:53:07.722Z,5.63
2018-09-19T07:55:36.224Z,5.20
2018-09-19T07:58:04.822Z,4.60
2018-09-19T08:00:33.377Z,4.90
2018-09-19T08:03:01.946Z,4.20
2018-09-19T08:05:30.605Z,5.10
2018-09-19T08:07:59.111Z,5.20
2018-09-19T08:10:27.651Z,6.00
2018-09-19T08:12:56.180Z,4.93
2018-09-19T08:15:24.777Z,5.63
2018-09-19T08:17:53.272Z,5.57
2018-09-19T08:20:21.772Z,5.10
2018-09-19T08:22:50.169Z,3.93
2018-09-19T08:25:18.692Z,4.20
2018-09-19T08:27:47.253Z,4.73
2018-09-19T08:30:15.782Z,4.47
2018-09-19T08:32:44.303Z,4.33
2018-09-19T08:35:13.757Z,3.97
2018-09-19T08:37:43.234Z,3.80
2018-09-19T08:40:11.873Z,4.13
2018-09-19T08:42:40.434Z,4.17
2018-09-19T08:45:09.942Z,4.17
2018-09-19T08:47:38.620Z,4.23
2018-09-19T08:50:07.192Z,4.10
2018-09-19T08:52:36.304Z,4.70
2018-09-19T08:55:05.036Z,4.43
2018-09-19T08:57:33.562Z,4.53
2018-09-19T09:00:02.166Z,5.03
2018-09-19T09:02:31.749Z,4.20
2018-09-19T09:05:00.398Z,4.67
2018-09-19T09:07:28.867Z,4.50
2018-09-19T09:09:57.497Z,4.47
2018-09-19T09:12:26.197Z,4.40
2018-09-19T09:14:55.590Z,3.87
2018-09-19T09:17:24.213Z,3.60
2018-09-19T09:19:53.740Z,4.03
2018-09-19T09:22:22.314Z,4.27
2018-09-19T09:24:50.899Z,3.53
2018-09-19T09:27:20.341Z,4.17
2018-09-19T09:29:48.926Z,3.83
2018-09-19T09:34:45.995Z,5.03
2018-09-19T09:37:15.313Z,3.40
2018-09-19T09:39:43.965Z,3.27
2018-09-19T09:42:13.503Z,4.13
2018-09-19T09:44:42.397Z,3.20
2018-09-19T09:47:11.839Z,3.93
2018-09-19T09:49:40.594Z,4.20
2018-09-19T09:52:09.838Z,4.00
2018-09-19T09:54:39.328Z,2.93
2018-09-19T09:57:08.072Z,3.33
2018-09-19T09:59:37.447Z,3.77
2018-09-19T10:02:06.001Z,3.63
2018-09-19T10:04:34.774Z,3.93
2018-09-19T10:07:04.172Z,3.10
2018-09-19T10:09:32.692Z,3.70
2018-09-19T10:12:02.375Z,3.57
2018-09-19T10:14:31.057Z,2.93
2018-09-19T10:17:00.611Z,3.17
2018-09-19T10:19:29.423Z,3.23
2018-09-19T10:21:58.504Z,3.40
2018-09-19T10:24:27.667Z,3.60
2018-09-19T10:26:56.256Z,3.50
2018-09-19T10:29:24.736Z,3.03
2018-09-19T10:31:53.933Z,3.53
2018-09-19T10:34:22.640Z,3.87
2018-09-19T10:36:51.879Z,2.93
2018-09-19T10:39:21.339Z,3.07
2018-09-19T10:41:50.806Z,3.83
2018-09-19T10:44:19.344Z,2.60
2018-09-19T10:46:47.812Z,3.97
2018-09-19T10:49:16.305Z,4.13
2018-09-19T10:51:45.880Z,3.80
2018-09-19T10:54:15.604Z,3.53
2018-09-19T10:56:44.183Z,3.30
2018-09-19T10:59:12.646Z,3.87
2018-09-19T11:01:42.213Z,3.77
2018-09-19T11:04:10.878Z,3.70
2018-09-19T11:06:46.359Z,2.70
2018-09-19T11:09:14.889Z,2.97
2018-09-19T11:11:43.960Z,3.33
2018-09-19T11:14:13.133Z,3.17
2018-09-19T11:16:41.680Z,3.00
2018-09-19T11:19:11.028Z,3.57
2018-09-19T11:21:39.776Z,3.20
2018-09-19T11:24:08.480Z,2.90
2018-09-19T11:26:38.174Z,2.80
2018-09-19T11:29:07.239Z,2.77
2018-09-19T11:31:36.092Z,3.63
2018-09-19T11:34:05.996Z,3.63
2018-09-19T11:36:34.607Z,3.00
2018-09-19T11:39:03.143Z,3.40
2018-09-19T11:41:31.637Z,3.80
2018-09-19T11:44:01.459Z,3.53
2018-09-19T11:46:31.064Z,3.83
2018-09-19T11:49:00.294Z,3.33
2018-09-19T11:51:28.820Z,3.80
2018-09-19T11:53:58.104Z,3.93
2018-09-19T11:56:26.687Z,3.80
2018-09-19T11:58:55.191Z,3.77
2018-09-19T12:01:24.951Z,3.63
2018-09-19T12:03:53.677Z,3.50
2018-09-19T12:06:22.209Z,3.30
2018-09-19T12:08:50.744Z,3.27
2018-09-19T12:11:20.149Z,2.90
2018-09-19T12:13:48.635Z,4.17
2018-09-19T12:16:17.086Z,3.40
2018-09-19T12:18:46.305Z,3.73
2018-09-19T12:21:14.739Z,4.67
2018-09-19T12:23:43.681Z,3.00
2018-09-19T12:26:12.821Z,3.17
2018-09-19T12:28:41.349Z,3.00
2018-09-19T12:31:09.768Z,3.80
2018-09-19T12:33:38.131Z,3.80
2018-09-19T12:36:06.695Z,3.70
2018-09-19T12:38:35.059Z,3.00
2018-09-19T12:41:04.593Z,3.67
2018-09-19T12:43:33.051Z,2.90
2018-09-19T12:46:01.423Z,2.80
2018-09-19T12:48:36.330Z,3.17
2018-09-19T12:51:05.783Z,3.07
2018-09-19T12:53:35.233Z,3.43
2018-09-19T12:56:03.775Z,3.00
2018-09-19T12:58:32.128Z,2.90
2018-09-19T13:01:01.380Z,2.90
2018-09-19T13:03:29.863Z,3.00
2018-09-19T13:05:58.316Z,2.93
2018-09-19T13:08:27.410Z,2.77
2018-09-19T13:10:55.952Z,3.43
2018-09-19T13:13:24.300Z,3.30
2018-09-19T13:15:52.772Z,2.53
2018-09-19T13:18:21.186Z,3.00
2018-09-19T13:20:56.465Z,3.13
2018-09-19T13:23:25.620Z,3.97
2018-09-19T13:25:55.019Z,3.10
2018-09-19T13:28:24.252Z,3.13
2018-09-19T13:30:53.243Z,3.40
2018-09-19T13:33:21.598Z,3.20
2018-09-19T13:35:50.392Z,3.43
2018-09-19T13:38:19.006Z,2.90
2018-09-19T13:40:47.399Z,2.97
2018-09-19T13:43:15.783Z,3.33
2018-09-19T13:45:46.237Z,3.33
2018-09-19T13:48:14.664Z,3.77
2018-09-19T13:50:48.316Z,3.53
2018-09-19T13:53:21.859Z,2.40
2018-09-19T13:55:50.913Z,4.07
2018-09-19T13:58:19.473Z,4.27
2018-09-19T14:00:48.058Z,3.07
2018-09-19T14:03:16.879Z,3.83
2018-09-19T14:05:45.800Z,3.63
2018-09-19T14:08:14.378Z,3.70
2018-09-19T14:10:43.136Z,3.10
2018-09-19T14:13:11.767Z,3.60
2018-09-19T14:15:40.584Z,3.10
2018-09-19T14:18:09.190Z,3.00
2018-09-19T14:20:37.772Z,2.80
2018-09-19T14:23:07.238Z,2.80
2018-09-19T14:25:36.035Z,2.83
2018-09-19T14:28:04.596Z,4.77
2018-09-19T14:30:33.144Z,3.20
2018-09-19T14:33:01.789Z,2.77
2018-09-19T14:35:30.773Z,3.10
2018-09-19T14:37:59.400Z,2.97
2018-09-19T14:40:28.641Z,3.13
2018-09-19T14:42:57.231Z,3.20
2018-09-19T14:45:32.500Z,3.40
2018-09-19T14:48:01.021Z,3.33
2018-09-19T14:50:29.508Z,3.17
2018-09-19T14:52:59.078Z,3.53
2018-09-19T14:55:27.627Z,3.20
2018-09-19T14:57:56.087Z,2.87
2018-09-19T15:00:24.600Z,3.70
2018-09-19T15:02:54.212Z,3.50
2018-09-19T15:05:22.803Z,3.23
2018-09-19T15:07:51.456Z,3.30
2018-09-19T15:10:19.979Z,3.50
2018-09-19T15:12:49.660Z,2.47
2018-09-19T15:15:18.209Z,2.90
2018-09-19T15:17:46.856Z,3.40
2018-09-19T15:20:15.672Z,2.87
2018-09-19T15:22:44.189Z,3.67
2018-09-19T15:25:12.802Z,4.60
2018-09-19T15:27:41.656Z,3.77
2018-09-19T15:30:10.198Z,3.30
2018-09-19T15:32:39.552Z,3.37
2018-09-19T15:35:08.451Z,3.40
2018-09-19T15:37:37.803Z,3.67
2018-09-19T15:40:06.601Z,3.70
2018-09-19T15:42:35.297Z,3.47
2018-09-19T15:45:04.569Z,3.47
2018-09-19T15:47:33.371Z,3.20
2018-09-19T15:50:01.941Z,3.20
2018-09-19T15:52:30.476Z,3.03
2018-09-19T15:54:59.116Z,3.00
2018-09-19T15:57:27.738Z,3.20
2018-09-19T15:59:56.223Z,4.37
2018-09-19T16:02:24.679Z,3.97
2018-09-19T16:04:53.148Z,3.73
2018-09-19T16:07:21.654Z,3.13
2018-09-19T16:09:50.179Z,3.77
2018-09-19T16:12:19.740Z,4.50
2018-09-19T16:14:48.340Z,3.93
2018-09-19T16:17:16.815Z,3.57
2018-09-19T16:19:45.324Z,2.73
2018-09-19T16:22:13.803Z,3.97
2018-09-19T16:24:42.304Z,3.00
2018-09-19T16:27:10.882Z,3.60
2018-09-19T16:29:39.950Z,4.13
2018-09-19T16:32:08.425Z,3.90
2018-09-19T16:34:38.004Z,3.60
2018-09-19T16:37:06.558Z,3.50
2018-09-19T16:39:35.195Z,3.50
2018-09-19T16:42:03.809Z,3.50
2018-09-19T16:44:32.294Z,3.30
2018-09-19T16:47:00.815Z,3.37
2018-09-19T16:49:29.658Z,3.50
2018-09-19T16:51:58.104Z,3.60
2018-09-19T16:54:26.587Z,3.80
2018-09-19T16:56:55.243Z,3.50
2018-09-19T16:59:25.389Z,3.60
2018-09-19T17:01:54.461Z,3.63
2018-09-19T17:04:23.056Z,3.80
2018-09-19T17:06:51.574Z,3.37
2018-09-19T17:09:21.043Z,3.13
2018-09-19T17:11:49.953Z,3.57
2018-09-19T17:14:18.454Z,3.40
2018-09-19T17:16:47.028Z,3.90
2018-09-19T17:19:15.563Z,3.80
2018-09-19T17:21:44.051Z,4.10
2018-09-19T17:24:12.481Z,3.30
2018-09-19T17:26:40.964Z,4.30
2018-09-19T17:29:09.786Z,4.30
2018-09-19T17:31:38.512Z,3.90
2018-09-19T17:34:07.139Z,3.57
2018-09-19T17:36:37.265Z,3.63
2018-09-19T17:39:08.216Z,3.10
2018-09-19T17:41:36.703Z,3.90
2018-09-19T17:44:05.294Z,3.53
2018-09-19T17:46:34.568Z,4.17
2018-09-19T17:49:03.080Z,3.67
2018-09-19T17:51:31.587Z,3.80
2018-09-19T17:54:00.527Z,3.67
2018-09-19T17:56:29.076Z,4.07
2018-09-19T17:58:57.581Z,4.03
2018-09-19T18:01:27.142Z,3.40
2018-09-19T18:03:55.698Z,3.57
2018-09-19T18:06:24.137Z,3.90
2018-09-19T18:08:52.712Z,3.53
2018-09-19T18:11:23.309Z,3.27
2018-09-19T18:13:51.693Z,3.80
2018-09-19T18:16:20.223Z,3.77
2018-09-19T18:18:48.588Z,3.70
2018-09-19T18:21:21.454Z,3.70
2018-09-19T18:23:50.142Z,3.90
2018-09-19T18:26:18.599Z,4.10
2018-09-19T18:28:47.983Z,3.67
2018-09-19T18:31:16.603Z,4.37
2018-09-19T18:33:44.971Z,3.90
2018-09-19T18:36:13.388Z,3.57
2018-09-19T18:38:42.743Z,3.80
2018-09-19T18:41:11.250Z,4.10
2018-09-19T18:43:39.646Z,3.93
2018-09-19T18:46:08.080Z,6.23
2018-09-19T18:48:36.461Z,3.60
2018-09-19T18:51:04.868Z,4.47
2018-09-19T18:53:33.280Z,4.20
2018-09-19T18:56:01.712Z,4.30
2018-09-19T18:58:30.130Z,4.37
2018-09-19T19:00:58.506Z,4.47
2018-09-19T19:03:27.007Z,4.33
2018-09-19T19:05:55.374Z,4.20
2018-09-19T19:08:23.730Z,3.73
2018-09-19T19:10:52.088Z,3.70
2018-09-19T19:13:20.503Z,4.23
2018-09-19T19:15:48.977Z,3.50
2018-09-19T19:18:17.402Z,3.60
2018-09-19T19:20:45.855Z,4.30
2018-09-19T19:23:14.277Z,4.40
2018-09-19T19:25:42.677Z,3.77
2018-09-19T19:28:11.080Z,4.20
2018-09-19T19:30:39.585Z,3.20
2018-09-19T19:33:07.863Z,4.33
2018-09-19T19:35:36.289Z,4.10
2018-09-19T19:38:04.712Z,4.07
2018-09-19T19:40:32.992Z,4.77
2018-09-19T19:43:01.420Z,3.27
2018-09-19T19:45:29.796Z,4.37
2018-09-19T19:47:58.219Z,4.40
2018-09-19T19:50:26.613Z,4.53
2018-09-19T19:52:54.998Z,5.03
2018-09-19T19:55:23.510Z,4.17
2018-09-19T19:57:51.947Z,4.70
2018-09-19T20:00:20.294Z,4.70
2018-09-19T20:02:48.660Z,4.23
2018-09-19T20:05:17.011Z,4.30
2018-09-19T20:07:45.483Z,3.83
2018-09-19T20:10:13.839Z,5.20
2018-09-19T20:12:42.326Z,5.03
2018-09-19T20:15:10.770Z,4.13
2018-09-19T20:17:39.129Z,4.50
2018-09-19T20:20:07.609Z,3.80
2018-09-19T20:22:36.048Z,4.00
2018-09-19T20:25:04.490Z,3.70
2018-09-19T20:27:32.951Z,4.27
2018-09-19T20:30:01.454Z,4.70
2018-09-19T20:32:29.791Z,4.47
2018-09-19T20:34:58.242Z,4.37
2018-09-19T20:37:26.636Z,4.70
2018-09-19T20:39:55.136Z,4.93
2018-09-19T20:42:23.651Z,4.97
2018-09-19T20:44:52.101Z,3.73
2018-09-19T20:47:20.502Z,4.50
2018-09-19T20:49:48.948Z,4.77
2018-09-19T20:52:17.400Z,5.30
2018-09-19T20:54:45.839Z,4.50
2018-09-19T20:57:14.270Z,4.70
2018-09-19T20:59:42.715Z,6.10
2018-09-19T21:02:11.170Z,5.17
2018-09-19T21:04:39.718Z,5.50
2018-09-19T21:07:08.065Z,5.53
2018-09-19T21:09:36.498Z,5.30
2018-09-19T21:12:04.946Z,6.30
2018-09-19T21:14:33.377Z,5.43
2018-09-19T21:17:01.794Z,5.80
2018-09-19T21:19:30.195Z,5.53
2018-09-19T21:21:58.684Z,5.90
2018-09-19T21:24:27.128Z,5.20
2018-09-19T21:26:55.667Z,6.17
2018-09-19T21:29:24.869Z,6.63
2018-09-19T21:31:53.361Z,6.43
2018-09-19T21:34:21.849Z,7.37
2018-09-19T21:36:50.487Z,6.30
2018-09-19T21:39:18.910Z,5.87
2018-09-19T21:41:47.341Z,5.13
2018-09-19T21:44:15.848Z,6.00
2018-09-19T21:46:44.346Z,6.00
2018-09-19T21:49:12.824Z,6.93
2018-09-19T21:51:41.275Z,6.27
2018-09-19T21:54:09.811Z,6.80
2018-09-19T21:56:38.204Z,6.60
2018-09-19T21:59:06.708Z,5.77
2018-09-19T22:01:40.903Z,6.00
2018-09-19T22:04:09.484Z,6.93
2018-09-19T22:06:38.376Z,7.03
2018-09-19T22:09:08.494Z,6.73
2018-09-19T22:11:37.168Z,7.17
2018-09-19T22:14:05.760Z,7.00
2018-09-19T22:16:34.332Z,7.07
2018-09-19T22:19:02.839Z,6.87
2018-09-19T22:21:31.552Z,6.00
2018-09-19T22:24:00.007Z,7.57
2018-09-19T22:26:28.454Z,7.30
2018-09-19T22:28:56.958Z,7.80
2018-09-19T22:31:25.477Z,6.57
2018-09-19T22:33:53.968Z,6.20
2018-09-19T22:36:22.395Z,6.93
2018-09-19T22:38:50.867Z,7.53
2018-09-19T22:41:19.724Z,6.37
2018-09-19T22:43:48.191Z,6.60
2018-09-19T22:46:16.595Z,7.60
2018-09-19T22:48:45.268Z,6.67
2018-09-19T22:51:13.695Z,6.00
2018-09-19T22:53:42.541Z,7.10
2018-09-19T22:56:11.032Z,7.20
2018-09-19T22:58:39.463Z,7.60
2018-09-19T23:01:07.939Z,9.13
2018-09-19T23:03:36.394Z,7.10
2018-09-19T23:06:04.784Z,6.17
2018-09-19T23:08:33.205Z,7.53
2018-09-19T23:11:01.617Z,6.30
2018-09-19T23:13:29.993Z,6.90
2018-09-19T23:15:58.401Z,6.40
2018-09-19T23:18:26.817Z,6.70
2018-09-19T23:20:55.260Z,5.70
2018-09-19T23:23:23.673Z,7.00
2018-09-19T23:25:52.103Z,6.37
2018-09-19T23:28:21.136Z,6.30
2018-09-19T23:30:49.471Z,5.67
2018-09-19T23:33:17.833Z,5.73
2018-09-19T23:35:46.223Z,6.33
2018-09-19T23:38:14.645Z,5.90
2018-09-19T23:40:43.080Z,5.63
2018-09-19T23:43:11.532Z,5.90
2018-09-19T23:45:40.331Z,5.97
2018-09-19T23:48:08.761Z,6.50
2018-09-19T23:50:37.229Z,6.00
2018-09-19T23:53:05.692Z,5.50
2018-09-19T23:55:34.076Z,5.40
2018-09-19T23:58:02.584Z,5.50
